sensor_id;sensor_type;location;lat;lon;timestamp;temperature;humidity
36322;DHT22;23564;48.290;11.460;2022-09-28T00:01:50;9.00;1.00
36322;DHT22;23564;48.290;11.460;2022-09-28T00:04:16;9.00;1.00
36322;DHT22;23564;48.290;11.460;2022-09-28T00:06:42;9.00;1.00
36322;DHT22;23564;48.290;11.460;2022-09-28T00:09:07;9.00;1.00
36322;DHT22;23564;48.290;11.460;2022-09-28T00:11:33;9.10;1.00
36322;DHT22;23564;48.290;11.460;2022-09-28T00:14:00;9.10;1.00
36322;DHT22;23564;48.290;11.460;2022-09-28T00:16:33;9.20;1.00
36322;DHT22;23564;48.290;11.460;2022-09-28T00:19:00;9.20;1.00
36322;DHT22;23564;48.290;11.460;2022-09-28T00:21:29;9.20;1.00
36322;DHT22;23564;48.290;11.460;2022-09-28T00:23:56;9.20;1.00
36322;DHT22;23564;48.290;11.460;2022-09-28T00:26:41;9.20;1.00
36322;DHT22;23564;48.290;11.460;2022-09-28T00:29:20;9.20;1.00
36322;DHT22;23564;48.290;11.460;2022-09-28T00:31:47;9.20;1.00
36322;DHT22;23564;48.290;11.460;2022-09-28T00:34:14;9.20;1.00
36322;DHT22;23564;48.290;11.460;2022-09-28T00:36:43;9.20;1.00
36322;DHT22;23564;48.290;11.460;2022-09-28T00:39:10;9.20;1.00
36322;DHT22;23564;48.290;11.460;2022-09-28T00:41:36;9.20;1.00
36322;DHT22;23564;48.290;11.460;2022-09-28T00:49:20;9.20;1.00
36322;DHT22;23564;48.290;11.460;2022-09-28T00:51:46;9.20;1.00
36322;DHT22;23564;48.290;11.460;2022-09-28T00:54:13;9.20;1.00
36322;DHT22;23564;48.290;11.460;2022-09-28T00:56:41;9.20;1.00
36322;DHT22;23564;48.290;11.460;2022-09-28T00:59:09;9.20;1.00
36322;DHT22;23564;48.290;11.460;2022-09-28T01:01:35;9.30;1.00
36322;DHT22;23564;48.290;11.460;2022-09-28T01:04:02;9.30;1.00
36322;DHT22;23564;48.290;11.460;2022-09-28T01:06:31;9.40;1.00
36322;DHT22;23564;48.290;11.460;2022-09-28T01:09:00;9.40;1.00
36322;DHT22;23564;48.290;11.460;2022-09-28T01:11:30;9.40;1.00
36322;DHT22;23564;48.290;11.460;2022-09-28T01:13:56;9.40;1.00
36322;DHT22;23564;48.290;11.460;2022-09-28T01:16:37;9.30;1.00
36322;DHT22;23564;48.290;11.460;2022-09-28T01:21:49;9.30;1.00
36322;DHT22;23564;48.290;11.460;2022-09-28T01:24:44;9.20;1.00
36322;DHT22;23564;48.290;11.460;2022-09-28T01:27:32;9.20;1.00
36322;DHT22;23564;48.290;11.460;2022-09-28T01:30:07;9.20;1.00
36322;DHT22;23564;48.290;11.460;2022-09-28T01:38:21;9.20;1.00
36322;DHT22;23564;48.290;11.460;2022-09-28T01:40:50;9.20;1.00
36322;DHT22;23564;48.290;11.460;2022-09-28T01:43:23;9.20;1.00
36322;DHT22;23564;48.290;11.460;2022-09-28T01:48:35;9.20;1.00
36322;DHT22;23564;48.290;11.460;2022-09-28T01:51:09;9.20;1.00
36322;DHT22;23564;48.290;11.460;2022-09-28T01:53:42;9.20;1.00
36322;DHT22;23564;48.290;11.460;2022-09-28T01:56:23;9.10;1.00
36322;DHT22;23564;48.290;11.460;2022-09-28T01:58:58;9.10;1.00
36322;DHT22;23564;48.290;11.460;2022-09-28T02:01:30;9.10;1.00
36322;DHT22;23564;48.290;11.460;2022-09-28T02:04:07;9.10;1.00
36322;DHT22;23564;48.290;11.460;2022-09-28T02:06:46;9.10;1.00
36322;DHT22;23564;48.290;11.460;2022-09-28T02:09:22;9.10;1.00
36322;DHT22;23564;48.290;11.460;2022-09-28T02:11:53;9.00;1.00
36322;DHT22;23564;48.290;11.460;2022-09-28T02:14:22;9.00;1.00
36322;DHT22;23564;48.290;11.460;2022-09-28T02:16:50;9.00;1.00
36322;DHT22;23564;48.290;11.460;2022-09-28T02:19:18;8.90;1.00
36322;DHT22;23564;48.290;11.460;2022-09-28T02:22:10;8.90;1.00
36322;DHT22;23564;48.290;11.460;2022-09-28T02:24:41;8.80;1.00
36322;DHT22;23564;48.290;11.460;2022-09-28T02:27:33;8.70;1.00
36322;DHT22;23564;48.290;11.460;2022-09-28T02:30:00;8.60;1.00
36322;DHT22;23564;48.290;11.460;2022-09-28T02:32:27;8.50;1.00
36322;DHT22;23564;48.290;11.460;2022-09-28T02:34:54;8.50;1.00
36322;DHT22;23564;48.290;11.460;2022-09-28T02:37:20;8.40;1.00
36322;DHT22;23564;48.290;11.460;2022-09-28T02:39:45;8.40;1.00
36322;DHT22;23564;48.290;11.460;2022-09-28T02:42:20;8.40;1.00
36322;DHT22;23564;48.290;11.460;2022-09-28T02:47:51;8.20;1.00
36322;DHT22;23564;48.290;11.460;2022-09-28T02:55:52;8.10;1.00
36322;DHT22;23564;48.290;11.460;2022-09-28T02:58:47;8.00;1.00
36322;DHT22;23564;48.290;11.460;2022-09-28T03:01:32;7.90;1.00
36322;DHT22;23564;48.290;11.460;2022-09-28T03:07:35;7.90;1.00
36322;DHT22;23564;48.290;11.460;2022-09-28T03:10:08;7.80;1.00
36322;DHT22;23564;48.290;11.460;2022-09-28T03:12:38;7.80;1.00
36322;DHT22;23564;48.290;11.460;2022-09-28T03:17:35;7.80;1.00
36322;DHT22;23564;48.290;11.460;2022-09-28T03:20:02;7.80;1.00
36322;DHT22;23564;48.290;11.460;2022-09-28T03:22:28;7.80;1.00
36322;DHT22;23564;48.290;11.460;2022-09-28T03:24:54;7.80;1.00
36322;DHT22;23564;48.290;11.460;2022-09-28T03:27:19;7.80;1.00
36322;DHT22;23564;48.290;11.460;2022-09-28T03:29:45;7.70;1.00
36322;DHT22;23564;48.290;11.460;2022-09-28T03:32:10;7.80;1.00
36322;DHT22;23564;48.290;11.460;2022-09-28T03:34:36;7.80;1.00
36322;DHT22;23564;48.290;11.460;2022-09-28T03:37:01;7.80;1.00
36322;DHT22;23564;48.290;11.460;2022-09-28T03:39:27;7.80;1.00
36322;DHT22;23564;48.290;11.460;2022-09-28T03:41:52;7.80;1.00
36322;DHT22;23564;48.290;11.460;2022-09-28T03:44:18;7.80;1.00
36322;DHT22;23564;48.290;11.460;2022-09-28T03:46:45;7.90;1.00
36322;DHT22;23564;48.290;11.460;2022-09-28T03:49:10;7.90;1.00
36322;DHT22;23564;48.290;11.460;2022-09-28T03:51:36;8.00;1.00
36322;DHT22;23564;48.290;11.460;2022-09-28T03:54:02;8.10;1.00
36322;DHT22;23564;48.290;11.460;2022-09-28T03:56:27;8.10;1.00
36322;DHT22;23564;48.290;11.460;2022-09-28T03:58:53;8.20;1.00
36322;DHT22;23564;48.290;11.460;2022-09-28T04:01:18;8.20;1.00
36322;DHT22;23564;48.290;11.460;2022-09-28T04:03:44;8.20;1.00
36322;DHT22;23564;48.290;11.460;2022-09-28T04:06:11;8.30;1.00
36322;DHT22;23564;48.290;11.460;2022-09-28T04:08:37;8.30;1.00
36322;DHT22;23564;48.290;11.460;2022-09-28T04:11:02;8.30;1.00
36322;DHT22;23564;48.290;11.460;2022-09-28T04:13:28;8.40;1.00
36322;DHT22;23564;48.290;11.460;2022-09-28T04:15:56;8.40;1.00
36322;DHT22;23564;48.290;11.460;2022-09-28T04:18:22;8.40;1.00
36322;DHT22;23564;48.290;11.460;2022-09-28T04:21:00;8.40;1.00
36322;DHT22;23564;48.290;11.460;2022-09-28T04:23:28;8.50;1.00
36322;DHT22;23564;48.290;11.460;2022-09-28T04:25:54;8.50;1.00
36322;DHT22;23564;48.290;11.460;2022-09-28T04:28:19;8.60;1.00
36322;DHT22;23564;48.290;11.460;2022-09-28T04:31:12;8.60;1.00
36322;DHT22;23564;48.290;11.460;2022-09-28T04:33:38;8.60;1.00
36322;DHT22;23564;48.290;11.460;2022-09-28T04:36:04;8.60;1.00
36322;DHT22;23564;48.290;11.460;2022-09-28T04:38:31;8.60;1.00
36322;DHT22;23564;48.290;11.460;2022-09-28T04:40:56;8.60;1.00
36322;DHT22;23564;48.290;11.460;2022-09-28T04:43:22;8.60;1.00
36322;DHT22;23564;48.290;11.460;2022-09-28T04:45:47;8.70;1.00
36322;DHT22;23564;48.290;11.460;2022-09-28T04:48:13;8.70;1.00
36322;DHT22;23564;48.290;11.460;2022-09-28T04:50:38;8.80;1.00
36322;DHT22;23564;48.290;11.460;2022-09-28T04:53:04;8.80;1.00
36322;DHT22;23564;48.290;11.460;2022-09-28T04:55:29;8.90;1.00
36322;DHT22;23564;48.290;11.460;2022-09-28T04:57:59;8.80;1.00
36322;DHT22;23564;48.290;11.460;2022-09-28T05:00:29;8.90;1.00
36322;DHT22;23564;48.290;11.460;2022-09-28T05:03:00;8.90;1.00
36322;DHT22;23564;48.290;11.460;2022-09-28T05:05:26;8.90;1.00
36322;DHT22;23564;48.290;11.460;2022-09-28T05:07:51;8.80;1.00
36322;DHT22;23564;48.290;11.460;2022-09-28T05:10:17;8.80;1.00
36322;DHT22;23564;48.290;11.460;2022-09-28T05:12:43;8.90;1.00
36322;DHT22;23564;48.290;11.460;2022-09-28T05:15:08;8.90;1.00
36322;DHT22;23564;48.290;11.460;2022-09-28T05:17:34;8.90;1.00
36322;DHT22;23564;48.290;11.460;2022-09-28T05:20:00;8.90;1.00
36322;DHT22;23564;48.290;11.460;2022-09-28T05:22:27;8.90;1.00
36322;DHT22;23564;48.290;11.460;2022-09-28T05:24:52;8.90;1.00
36322;DHT22;23564;48.290;11.460;2022-09-28T05:27:19;8.90;1.00
36322;DHT22;23564;48.290;11.460;2022-09-28T05:29:45;8.90;1.00
36322;DHT22;23564;48.290;11.460;2022-09-28T05:32:10;8.90;1.00
36322;DHT22;23564;48.290;11.460;2022-09-28T05:34:36;8.90;1.00
36322;DHT22;23564;48.290;11.460;2022-09-28T05:37:02;9.00;1.00
36322;DHT22;23564;48.290;11.460;2022-09-28T05:39:27;9.00;1.00
36322;DHT22;23564;48.290;11.460;2022-09-28T05:41:54;9.00;1.00
36322;DHT22;23564;48.290;11.460;2022-09-28T05:44:20;9.00;1.00
36322;DHT22;23564;48.290;11.460;2022-09-28T05:46:45;9.00;1.00
36322;DHT22;23564;48.290;11.460;2022-09-28T05:49:11;9.00;1.00
36322;DHT22;23564;48.290;11.460;2022-09-28T05:51:37;9.00;1.00
36322;DHT22;23564;48.290;11.460;2022-09-28T05:54:03;9.10;1.00
36322;DHT22;23564;48.290;11.460;2022-09-28T05:56:29;9.10;1.00
36322;DHT22;23564;48.290;11.460;2022-09-28T05:58:56;9.20;1.00
36322;DHT22;23564;48.290;11.460;2022-09-28T06:01:23;9.20;1.00
36322;DHT22;23564;48.290;11.460;2022-09-28T06:03:48;9.20;1.00
36322;DHT22;23564;48.290;11.460;2022-09-28T06:06:14;9.20;1.00
36322;DHT22;23564;48.290;11.460;2022-09-28T06:08:39;9.20;1.00
36322;DHT22;23564;48.290;11.460;2022-09-28T06:11:08;9.20;1.00
36322;DHT22;23564;48.290;11.460;2022-09-28T06:13:36;9.20;1.00
36322;DHT22;23564;48.290;11.460;2022-09-28T06:16:03;9.20;1.00
36322;DHT22;23564;48.290;11.460;2022-09-28T06:18:29;9.20;1.00
36322;DHT22;23564;48.290;11.460;2022-09-28T06:20:54;9.20;1.00
36322;DHT22;23564;48.290;11.460;2022-09-28T06:23:20;9.30;1.00
36322;DHT22;23564;48.290;11.460;2022-09-28T06:25:45;9.30;1.00
36322;DHT22;23564;48.290;11.460;2022-09-28T06:28:12;9.30;1.00
36322;DHT22;23564;48.290;11.460;2022-09-28T06:30:40;9.30;1.00
36322;DHT22;23564;48.290;11.460;2022-09-28T06:33:09;9.40;1.00
36322;DHT22;23564;48.290;11.460;2022-09-28T06:35:35;9.50;1.00
36322;DHT22;23564;48.290;11.460;2022-09-28T06:38:01;9.50;1.00
36322;DHT22;23564;48.290;11.460;2022-09-28T06:40:27;9.50;1.00
36322;DHT22;23564;48.290;11.460;2022-09-28T06:43:00;9.60;1.00
36322;DHT22;23564;48.290;11.460;2022-09-28T06:45:28;9.60;1.00
36322;DHT22;23564;48.290;11.460;2022-09-28T06:47:56;9.60;1.00
36322;DHT22;23564;48.290;11.460;2022-09-28T06:50:24;9.60;1.00
36322;DHT22;23564;48.290;11.460;2022-09-28T06:52:51;9.60;1.00
36322;DHT22;23564;48.290;11.460;2022-09-28T06:55:17;9.60;1.00
36322;DHT22;23564;48.290;11.460;2022-09-28T06:57:43;9.70;1.00
36322;DHT22;23564;48.290;11.460;2022-09-28T07:00:09;9.70;1.00
36322;DHT22;23564;48.290;11.460;2022-09-28T07:02:35;9.70;1.00
36322;DHT22;23564;48.290;11.460;2022-09-28T07:05:00;9.70;1.00
36322;DHT22;23564;48.290;11.460;2022-09-28T07:07:27;9.70;1.00
36322;DHT22;23564;48.290;11.460;2022-09-28T07:09:53;9.70;1.00
36322;DHT22;23564;48.290;11.460;2022-09-28T07:12:20;9.70;1.00
36322;DHT22;23564;48.290;11.460;2022-09-28T07:14:47;9.70;1.00
36322;DHT22;23564;48.290;11.460;2022-09-28T07:17:14;9.70;1.00
36322;DHT22;23564;48.290;11.460;2022-09-28T07:19:40;9.70;1.00
36322;DHT22;23564;48.290;11.460;2022-09-28T07:22:05;9.70;1.00
36322;DHT22;23564;48.290;11.460;2022-09-28T07:24:31;9.70;1.00
36322;DHT22;23564;48.290;11.460;2022-09-28T07:26:56;9.80;1.00
36322;DHT22;23564;48.290;11.460;2022-09-28T07:29:22;9.90;1.00
36322;DHT22;23564;48.290;11.460;2022-09-28T07:31:47;10.00;1.00
36322;DHT22;23564;48.290;11.460;2022-09-28T07:34:13;10.00;1.00
36322;DHT22;23564;48.290;11.460;2022-09-28T07:36:39;10.00;1.00
36322;DHT22;23564;48.290;11.460;2022-09-28T07:39:04;10.10;1.00
36322;DHT22;23564;48.290;11.460;2022-09-28T07:41:30;10.10;1.00
36322;DHT22;23564;48.290;11.460;2022-09-28T07:44:00;10.10;1.00
36322;DHT22;23564;48.290;11.460;2022-09-28T07:46:33;10.10;1.00
36322;DHT22;23564;48.290;11.460;2022-09-28T07:48:59;10.20;1.00
36322;DHT22;23564;48.290;11.460;2022-09-28T07:51:25;10.20;1.00
36322;DHT22;23564;48.290;11.460;2022-09-28T07:53:51;10.20;1.00
36322;DHT22;23564;48.290;11.460;2022-09-28T07:56:19;10.30;1.00
36322;DHT22;23564;48.290;11.460;2022-09-28T07:58:46;10.20;1.00
36322;DHT22;23564;48.290;11.460;2022-09-28T08:01:12;10.20;1.00
36322;DHT22;23564;48.290;11.460;2022-09-28T08:03:44;10.30;1.00
36322;DHT22;23564;48.290;11.460;2022-09-28T08:06:13;10.30;1.00
36322;DHT22;23564;48.290;11.460;2022-09-28T08:08:40;10.30;1.00
36322;DHT22;23564;48.290;11.460;2022-09-28T08:11:13;10.40;1.00
36322;DHT22;23564;48.290;11.460;2022-09-28T08:13:39;10.40;1.00
36322;DHT22;23564;48.290;11.460;2022-09-28T08:16:06;10.40;1.00
36322;DHT22;23564;48.290;11.460;2022-09-28T08:18:33;10.40;1.00
36322;DHT22;23564;48.290;11.460;2022-09-28T08:21:03;10.40;1.00
36322;DHT22;23564;48.290;11.460;2022-09-28T08:23:47;10.40;1.00
36322;DHT22;23564;48.290;11.460;2022-09-28T08:26:13;10.40;1.00
36322;DHT22;23564;48.290;11.460;2022-09-28T08:28:39;10.40;1.00
36322;DHT22;23564;48.290;11.460;2022-09-28T08:31:05;10.50;1.00
36322;DHT22;23564;48.290;11.460;2022-09-28T08:33:32;10.40;1.00
36322;DHT22;23564;48.290;11.460;2022-09-28T08:35:59;10.40;1.00
36322;DHT22;23564;48.290;11.460;2022-09-28T08:38:27;10.50;1.00
36322;DHT22;23564;48.290;11.460;2022-09-28T08:46:23;10.30;1.00
36322;DHT22;23564;48.290;11.460;2022-09-28T08:51:44;9.80;1.00
36322;DHT22;23564;48.290;11.460;2022-09-28T08:54:27;9.60;1.00
36322;DHT22;23564;48.290;11.460;2022-09-28T08:57:00;9.50;1.00
36322;DHT22;23564;48.290;11.460;2022-09-28T09:02:15;9.40;1.00
36322;DHT22;23564;48.290;11.460;2022-09-28T09:04:41;9.30;1.00
36322;DHT22;23564;48.290;11.460;2022-09-28T09:10:51;9.10;1.00
36322;DHT22;23564;48.290;11.460;2022-09-28T09:16:31;9.20;1.00
36322;DHT22;23564;48.290;11.460;2022-09-28T09:19:30;9.10;1.00
36322;DHT22;23564;48.290;11.460;2022-09-28T09:22:11;9.20;1.00
36322;DHT22;23564;48.290;11.460;2022-09-28T09:24:49;9.30;1.00
36322;DHT22;23564;48.290;11.460;2022-09-28T09:30:15;9.60;1.00
36322;DHT22;23564;48.290;11.460;2022-09-28T09:33:12;9.70;1.00
36322;DHT22;23564;48.290;11.460;2022-09-28T09:36:21;9.80;1.00
36322;DHT22;23564;48.290;11.460;2022-09-28T09:41:57;10.00;1.00
36322;DHT22;23564;48.290;11.460;2022-09-28T09:45:20;10.20;1.00
36322;DHT22;23564;48.290;11.460;2022-09-28T09:47:44;10.40;1.00
36322;DHT22;23564;48.290;11.460;2022-09-28T09:50:28;10.50;1.00
36322;DHT22;23564;48.290;11.460;2022-09-28T09:53:16;10.60;1.00
36322;DHT22;23564;48.290;11.460;2022-09-28T09:55:46;10.70;99.90
36322;DHT22;23564;48.290;11.460;2022-09-28T10:00:51;10.80;99.90
36322;DHT22;23564;48.290;11.460;2022-09-28T10:03:27;10.90;99.90
36322;DHT22;23564;48.290;11.460;2022-09-28T10:06:08;11.10;99.90
36322;DHT22;23564;48.290;11.460;2022-09-28T10:08:43;11.20;99.90
36322;DHT22;23564;48.290;11.460;2022-09-28T10:11:16;11.10;99.90
36322;DHT22;23564;48.290;11.460;2022-09-28T10:13:45;11.10;99.90
36322;DHT22;23564;48.290;11.460;2022-09-28T10:16:11;11.10;99.90
36322;DHT22;23564;48.290;11.460;2022-09-28T10:18:36;11.10;99.90
36322;DHT22;23564;48.290;11.460;2022-09-28T10:21:03;11.00;99.90
36322;DHT22;23564;48.290;11.460;2022-09-28T10:23:30;11.20;99.90
36322;DHT22;23564;48.290;11.460;2022-09-28T10:26:18;11.20;99.90
36322;DHT22;23564;48.290;11.460;2022-09-28T10:28:53;11.20;99.90
36322;DHT22;23564;48.290;11.460;2022-09-28T10:31:50;11.30;99.90
36322;DHT22;23564;48.290;11.460;2022-09-28T10:34:18;11.50;99.90
36322;DHT22;23564;48.290;11.460;2022-09-28T10:37:07;11.70;99.90
36322;DHT22;23564;48.290;11.460;2022-09-28T10:39:51;11.80;99.90
36322;DHT22;23564;48.290;11.460;2022-09-28T10:42:27;11.90;99.90
36322;DHT22;23564;48.290;11.460;2022-09-28T10:44:54;11.80;99.90
36322;DHT22;23564;48.290;11.460;2022-09-28T10:47:23;11.80;99.90
36322;DHT22;23564;48.290;11.460;2022-09-28T10:49:50;11.80;99.90
36322;DHT22;23564;48.290;11.460;2022-09-28T10:52:36;11.80;99.90
36322;DHT22;23564;48.290;11.460;2022-09-28T10:55:28;11.90;99.90
36322;DHT22;23564;48.290;11.460;2022-09-28T10:57:55;11.80;99.90
36322;DHT22;23564;48.290;11.460;2022-09-28T11:00:41;11.80;99.90
36322;DHT22;23564;48.290;11.460;2022-09-28T11:03:27;11.60;99.90
36322;DHT22;23564;48.290;11.460;2022-09-28T11:06:04;11.60;99.90
36322;DHT22;23564;48.290;11.460;2022-09-28T11:08:37;11.60;99.90
36322;DHT22;23564;48.290;11.460;2022-09-28T11:11:09;11.70;99.90
36322;DHT22;23564;48.290;11.460;2022-09-28T11:13:52;11.80;99.90
36322;DHT22;23564;48.290;11.460;2022-09-28T11:16:33;11.90;99.90
36322;DHT22;23564;48.290;11.460;2022-09-28T11:19:27;11.90;99.90
36322;DHT22;23564;48.290;11.460;2022-09-28T11:21:54;11.90;99.90
36322;DHT22;23564;48.290;11.460;2022-09-28T11:24:21;11.80;99.90
36322;DHT22;23564;48.290;11.460;2022-09-28T11:26:55;11.80;99.90
36322;DHT22;23564;48.290;11.460;2022-09-28T11:29:33;11.90;99.90
36322;DHT22;23564;48.290;11.460;2022-09-28T11:32:01;11.90;99.90
36322;DHT22;23564;48.290;11.460;2022-09-28T11:34:42;12.00;99.90
36322;DHT22;23564;48.290;11.460;2022-09-28T11:40:49;12.20;99.90
36322;DHT22;23564;48.290;11.460;2022-09-28T11:51:45;12.00;99.90
36322;DHT22;23564;48.290;11.460;2022-09-28T11:54:41;12.00;99.90
36322;DHT22;23564;48.290;11.460;2022-09-28T11:57:17;12.00;99.90
36322;DHT22;23564;48.290;11.460;2022-09-28T12:00:05;11.90;99.90
36322;DHT22;23564;48.290;11.460;2022-09-28T12:02:36;11.80;99.90
36322;DHT22;23564;48.290;11.460;2022-09-28T12:05:12;11.90;99.90
36322;DHT22;23564;48.290;11.460;2022-09-28T12:07:46;11.90;99.90
36322;DHT22;23564;48.290;11.460;2022-09-28T12:13:09;11.80;99.90
36322;DHT22;23564;48.290;11.460;2022-09-28T12:15:47;11.90;99.90
36322;DHT22;23564;48.290;11.460;2022-09-28T12:18:25;11.80;99.90
36322;DHT22;23564;48.290;11.460;2022-09-28T12:23:54;11.70;99.90
36322;DHT22;23564;48.290;11.460;2022-09-28T12:26:53;11.70;99.90
36322;DHT22;23564;48.290;11.460;2022-09-28T12:29:42;11.60;99.90
36322;DHT22;23564;48.290;11.460;2022-09-28T12:32:27;11.60;99.90
36322;DHT22;23564;48.290;11.460;2022-09-28T12:34:54;11.40;99.90
36322;DHT22;23564;48.290;11.460;2022-09-28T12:37:56;11.30;99.90
36322;DHT22;23564;48.290;11.460;2022-09-28T12:40:47;11.40;99.90
36322;DHT22;23564;48.290;11.460;2022-09-28T12:49:03;11.40;99.90
36322;DHT22;23564;48.290;11.460;2022-09-28T12:51:51;11.40;99.90
36322;DHT22;23564;48.290;11.460;2022-09-28T12:54:41;11.40;99.90
36322;DHT22;23564;48.290;11.460;2022-09-28T12:57:35;11.40;99.90
36322;DHT22;23564;48.290;11.460;2022-09-28T13:00:18;11.50;99.90
36322;DHT22;23564;48.290;11.460;2022-09-28T13:05:54;11.70;99.90
36322;DHT22;23564;48.290;11.460;2022-09-28T13:11:13;11.80;99.90
36322;DHT22;23564;48.290;11.460;2022-09-28T13:16:57;11.70;99.90
36322;DHT22;23564;48.290;11.460;2022-09-28T13:22:46;11.60;99.90
36322;DHT22;23564;48.290;11.460;2022-09-28T13:25:17;11.60;99.90
36322;DHT22;23564;48.290;11.460;2022-09-28T13:27:50;11.50;99.90
36322;DHT22;23564;48.290;11.460;2022-09-28T13:30:17;11.50;99.90
36322;DHT22;23564;48.290;11.460;2022-09-28T13:32:44;11.50;99.90
36322;DHT22;23564;48.290;11.460;2022-09-28T13:35:16;11.60;99.90
36322;DHT22;23564;48.290;11.460;2022-09-28T13:37:44;11.60;99.90
36322;DHT22;23564;48.290;11.460;2022-09-28T13:40:09;11.60;99.90
36322;DHT22;23564;48.290;11.460;2022-09-28T13:56:12;11.70;99.90
36322;DHT22;23564;48.290;11.460;2022-09-28T13:58:52;11.70;99.90
36322;DHT22;23564;48.290;11.460;2022-09-28T14:01:35;11.70;99.90
36322;DHT22;23564;48.290;11.460;2022-09-28T14:04:19;11.80;99.90
36322;DHT22;23564;48.290;11.460;2022-09-28T14:07:09;11.80;99.90
36322;DHT22;23564;48.290;11.460;2022-09-28T14:09:44;11.70;99.90
36322;DHT22;23564;48.290;11.460;2022-09-28T14:12:42;11.70;99.90
36322;DHT22;23564;48.290;11.460;2022-09-28T14:17:58;11.60;99.90
36322;DHT22;23564;48.290;11.460;2022-09-28T14:20:26;11.60;99.90
36322;DHT22;23564;48.290;11.460;2022-09-28T14:26:18;11.60;99.90
36322;DHT22;23564;48.290;11.460;2022-09-28T14:31:26;11.40;99.90
36322;DHT22;23564;48.290;11.460;2022-09-28T14:33:55;11.40;99.90
36322;DHT22;23564;48.290;11.460;2022-09-28T14:36:31;11.30;99.90
36322;DHT22;23564;48.290;11.460;2022-09-28T14:39:27;11.30;99.90
36322;DHT22;23564;48.290;11.460;2022-09-28T14:42:17;11.20;99.90
36322;DHT22;23564;48.290;11.460;2022-09-28T14:47:41;11.10;99.90
36322;DHT22;23564;48.290;11.460;2022-09-28T14:50:36;11.10;99.90
36322;DHT22;23564;48.290;11.460;2022-09-28T14:53:16;11.00;99.90
36322;DHT22;23564;48.290;11.460;2022-09-28T14:55:46;10.90;99.90
36322;DHT22;23564;48.290;11.460;2022-09-28T14:58:23;10.80;99.90
36322;DHT22;23564;48.290;11.460;2022-09-28T15:00:55;10.80;99.90
36322;DHT22;23564;48.290;11.460;2022-09-28T15:03:23;10.80;1.00
36322;DHT22;23564;48.290;11.460;2022-09-28T15:05:48;10.80;1.00
36322;DHT22;23564;48.290;11.460;2022-09-28T15:08:18;10.70;1.00
36322;DHT22;23564;48.290;11.460;2022-09-28T15:10:45;10.80;1.00
36322;DHT22;23564;48.290;11.460;2022-09-28T15:13:24;10.70;99.90
36322;DHT22;23564;48.290;11.460;2022-09-28T15:15:58;10.70;1.00
36322;DHT22;23564;48.290;11.460;2022-09-28T15:21:10;10.70;99.90
36322;DHT22;23564;48.290;11.460;2022-09-28T15:23:38;10.70;99.90
36322;DHT22;23564;48.290;11.460;2022-09-28T15:26:07;10.70;1.00
36322;DHT22;23564;48.290;11.460;2022-09-28T15:28:43;10.60;1.00
36322;DHT22;23564;48.290;11.460;2022-09-28T15:31:19;10.60;1.00
36322;DHT22;23564;48.290;11.460;2022-09-28T15:33:45;10.60;1.00
36322;DHT22;23564;48.290;11.460;2022-09-28T15:36:37;10.50;99.90
36322;DHT22;23564;48.290;11.460;2022-09-28T15:39:09;10.50;99.90
36322;DHT22;23564;48.290;11.460;2022-09-28T15:41:36;10.50;99.90
36322;DHT22;23564;48.290;11.460;2022-09-28T15:46:39;10.50;1.00
36322;DHT22;23564;48.290;11.460;2022-09-28T15:49:07;10.40;1.00
36322;DHT22;23564;48.290;11.460;2022-09-28T15:51:48;10.40;1.00
36322;DHT22;23564;48.290;11.460;2022-09-28T15:54:16;10.40;1.00
36322;DHT22;23564;48.290;11.460;2022-09-28T15:56:59;10.40;1.00
36322;DHT22;23564;48.290;11.460;2022-09-28T15:59:34;10.40;1.00
36322;DHT22;23564;48.290;11.460;2022-09-28T16:02:17;10.40;1.00
36322;DHT22;23564;48.290;11.460;2022-09-28T16:04:50;10.40;1.00
36322;DHT22;23564;48.290;11.460;2022-09-28T16:07:37;10.30;1.00
36322;DHT22;23564;48.290;11.460;2022-09-28T16:12:47;10.20;1.00
36322;DHT22;23564;48.290;11.460;2022-09-28T16:17:58;10.20;1.00
36322;DHT22;23564;48.290;11.460;2022-09-28T16:20:37;10.10;1.00
36322;DHT22;23564;48.290;11.460;2022-09-28T16:23:31;10.00;1.00
36322;DHT22;23564;48.290;11.460;2022-09-28T16:26:04;10.00;1.00
36322;DHT22;23564;48.290;11.460;2022-09-28T16:28:46;10.00;1.00
36322;DHT22;23564;48.290;11.460;2022-09-28T16:33:57;9.80;1.00
36322;DHT22;23564;48.290;11.460;2022-09-28T16:36:27;9.80;1.00
36322;DHT22;23564;48.290;11.460;2022-09-28T16:39:02;9.80;1.00
36322;DHT22;23564;48.290;11.460;2022-09-28T16:41:28;9.80;1.00
36322;DHT22;23564;48.290;11.460;2022-09-28T16:43:59;9.70;1.00
36322;DHT22;23564;48.290;11.460;2022-09-28T16:46:32;9.80;1.00
36322;DHT22;23564;48.290;11.460;2022-09-28T16:49:01;9.70;1.00
36322;DHT22;23564;48.290;11.460;2022-09-28T16:51:27;9.80;1.00
36322;DHT22;23564;48.290;11.460;2022-09-28T16:53:56;9.80;1.00
36322;DHT22;23564;48.290;11.460;2022-09-28T16:56:42;9.80;1.00
36322;DHT22;23564;48.290;11.460;2022-09-28T16:59:09;9.80;1.00
36322;DHT22;23564;48.290;11.460;2022-09-28T17:01:34;9.70;1.00
36322;DHT22;23564;48.290;11.460;2022-09-28T17:04:06;9.70;1.00
36322;DHT22;23564;48.290;11.460;2022-09-28T17:06:32;9.70;1.00
36322;DHT22;23564;48.290;11.460;2022-09-28T17:08:57;9.70;1.00
36322;DHT22;23564;48.290;11.460;2022-09-28T17:11:24;9.60;1.00
36322;DHT22;23564;48.290;11.460;2022-09-28T17:13:49;9.60;1.00
36322;DHT22;23564;48.290;11.460;2022-09-28T17:16:18;9.60;1.00
36322;DHT22;23564;48.290;11.460;2022-09-28T17:18:45;9.60;1.00
36322;DHT22;23564;48.290;11.460;2022-09-28T17:21:14;9.60;1.00
36322;DHT22;23564;48.290;11.460;2022-09-28T17:23:41;9.60;1.00
36322;DHT22;23564;48.290;11.460;2022-09-28T17:26:17;9.60;1.00
36322;DHT22;23564;48.290;11.460;2022-09-28T17:28:43;9.60;1.00
36322;DHT22;23564;48.290;11.460;2022-09-28T17:31:13;9.50;1.00
36322;DHT22;23564;48.290;11.460;2022-09-28T17:33:39;9.50;1.00
36322;DHT22;23564;48.290;11.460;2022-09-28T17:36:05;9.50;1.00
36322;DHT22;23564;48.290;11.460;2022-09-28T17:38:31;9.50;1.00
36322;DHT22;23564;48.290;11.460;2022-09-28T17:40:58;9.40;1.00
36322;DHT22;23564;48.290;11.460;2022-09-28T17:43:24;9.40;1.00
36322;DHT22;23564;48.290;11.460;2022-09-28T17:45:49;9.40;1.00
36322;DHT22;23564;48.290;11.460;2022-09-28T17:48:17;9.40;1.00
36322;DHT22;23564;48.290;11.460;2022-09-28T17:50:44;9.40;1.00
36322;DHT22;23564;48.290;11.460;2022-09-28T17:53:11;9.40;1.00
36322;DHT22;23564;48.290;11.460;2022-09-28T17:55:37;9.40;1.00
36322;DHT22;23564;48.290;11.460;2022-09-28T17:58:18;9.40;1.00
36322;DHT22;23564;48.290;11.460;2022-09-28T18:00:45;9.50;1.00
36322;DHT22;23564;48.290;11.460;2022-09-28T18:03:14;9.50;1.00
36322;DHT22;23564;48.290;11.460;2022-09-28T18:05:42;9.50;1.00
36322;DHT22;23564;48.290;11.460;2022-09-28T18:08:11;9.50;1.00
36322;DHT22;23564;48.290;11.460;2022-09-28T18:10:37;9.50;1.00
36322;DHT22;23564;48.290;11.460;2022-09-28T18:13:02;9.40;1.00
36322;DHT22;23564;48.290;11.460;2022-09-28T18:15:28;9.40;1.00